sensor_id;sensor_type;location;lat;lon;timestamp;P1;durP1;ratioP1;P2;durP2;ratioP2
71941;SDS011;59997;53.300;-6.260;2023-04-16T00:00:05;9.80;;;1.40;;
71941;SDS011;59997;53.300;-6.260;2023-04-16T00:02:32;7.38;;;1.77;;
71941;SDS011;59997;53.300;-6.260;2023-04-16T00:04:57;9.90;;;1.73;;
71941;SDS011;59997;53.300;-6.260;2023-04-16T00:07:23;7.07;;;1.90;;
71941;SDS011;59997;53.300;-6.260;2023-04-16T00:09:48;6.90;;;1.77;;
71941;SDS011;59997;53.300;-6.260;2023-04-16T00:12:14;7.20;;;1.55;;
71941;SDS011;59997;53.300;-6.260;2023-04-16T00:14:40;7.80;;;1.67;;
71941;SDS011;59997;53.300;-6.260;2023-04-16T00:17:07;7.50;;;1.80;;
71941;SDS011;59997;53.300;-6.260;2023-04-16T00:19:33;8.63;;;1.90;;
71941;SDS011;59997;53.300;-6.260;2023-04-16T00:21:59;9.30;;;1.58;;
71941;SDS011;59997;53.300;-6.260;2023-04-16T00:24:25;6.37;;;1.77;;
71941;SDS011;59997;53.300;-6.260;2023-04-16T00:26:50;5.87;;;1.53;;
71941;SDS011;59997;53.300;-6.260;2023-04-16T00:29:16;7.17;;;2.67;;
71941;SDS011;59997;53.300;-6.260;2023-04-16T00:31:41;8.13;;;2.00;;
71941;SDS011;59997;53.300;-6.260;2023-04-16T00:34:07;5.97;;;1.67;;
71941;SDS011;59997;53.300;-6.260;2023-04-16T00:36:32;8.27;;;2.17;;
71941;SDS011;59997;53.300;-6.260;2023-04-16T00:38:58;8.70;;;2.33;;
71941;SDS011;59997;53.300;-6.260;2023-04-16T00:41:23;7.87;;;2.00;;
71941;SDS011;59997;53.300;-6.260;2023-04-16T00:43:50;8.25;;;2.13;;
71941;SDS011;59997;53.300;-6.260;2023-04-16T00:46:15;10.07;;;1.93;;
71941;SDS011;59997;53.300;-6.260;2023-04-16T00:48:42;9.77;;;1.83;;
71941;SDS011;59997;53.300;-6.260;2023-04-16T00:51:08;9.05;;;1.98;;
71941;SDS011;59997;53.300;-6.260;2023-04-16T00:53:35;10.83;;;2.23;;
71941;SDS011;59997;53.300;-6.260;2023-04-16T00:56:02;10.93;;;1.90;;
71941;SDS011;59997;53.300;-6.260;2023-04-16T00:58:29;7.93;;;2.17;;
71941;SDS011;59997;53.300;-6.260;2023-04-16T01:00:55;7.05;;;1.80;;
71941;SDS011;59997;53.300;-6.260;2023-04-16T01:03:21;7.07;;;1.87;;
71941;SDS011;59997;53.300;-6.260;2023-04-16T01:05:47;10.00;;;2.08;;
71941;SDS011;59997;53.300;-6.260;2023-04-16T01:08:16;9.13;;;2.22;;
71941;SDS011;59997;53.300;-6.260;2023-04-16T01:10:43;10.02;;;2.17;;
71941;SDS011;59997;53.300;-6.260;2023-04-16T01:13:09;7.50;;;1.90;;
71941;SDS011;59997;53.300;-6.260;2023-04-16T01:15:35;8.20;;;2.00;;
71941;SDS011;59997;53.300;-6.260;2023-04-16T01:18:01;9.38;;;2.30;;
71941;SDS011;59997;53.300;-6.260;2023-04-16T01:20:26;7.43;;;1.80;;
71941;SDS011;59997;53.300;-6.260;2023-04-16T01:22:52;6.53;;;1.80;;
71941;SDS011;59997;53.300;-6.260;2023-04-16T01:25:17;7.03;;;1.97;;
71941;SDS011;59997;53.300;-6.260;2023-04-16T01:27:43;9.13;;;1.97;;
71941;SDS011;59997;53.300;-6.260;2023-04-16T01:30:08;6.80;;;1.77;;
71941;SDS011;59997;53.300;-6.260;2023-04-16T01:32:34;9.02;;;2.42;;
71941;SDS011;59997;53.300;-6.260;2023-04-16T01:34:59;8.57;;;2.50;;
71941;SDS011;59997;53.300;-6.260;2023-04-16T01:37:25;8.65;;;2.33;;
71941;SDS011;59997;53.300;-6.260;2023-04-16T01:39:50;7.63;;;1.80;;
71941;SDS011;59997;53.300;-6.260;2023-04-16T01:42:16;8.80;;;2.80;;
71941;SDS011;59997;53.300;-6.260;2023-04-16T01:44:42;8.88;;;2.20;;
71941;SDS011;59997;53.300;-6.260;2023-04-16T01:47:07;6.83;;;2.40;;
71941;SDS011;59997;53.300;-6.260;2023-04-16T01:49:33;10.90;;;2.50;;
71941;SDS011;59997;53.300;-6.260;2023-04-16T01:51:58;9.35;;;2.22;;
71941;SDS011;59997;53.300;-6.260;2023-04-16T01:54:24;9.65;;;2.35;;
71941;SDS011;59997;53.300;-6.260;2023-04-16T01:56:50;8.07;;;2.30;;
71941;SDS011;59997;53.300;-6.260;2023-04-16T01:59:15;11.63;;;2.53;;
71941;SDS011;59997;53.300;-6.260;2023-04-16T02:01:41;10.63;;;2.50;;
71941;SDS011;59997;53.300;-6.260;2023-04-16T02:04:07;9.10;;;2.30;;
71941;SDS011;59997;53.300;-6.260;2023-04-16T02:06:33;10.07;;;2.30;;
71941;SDS011;59997;53.300;-6.260;2023-04-16T02:08:58;7.37;;;2.20;;
71941;SDS011;59997;53.300;-6.260;2023-04-16T02:11:24;7.03;;;2.30;;
71941;SDS011;59997;53.300;-6.260;2023-04-16T02:13:50;5.95;;;1.90;;
71941;SDS011;59997;53.300;-6.260;2023-04-16T02:16:15;5.83;;;1.80;;
71941;SDS011;59997;53.300;-6.260;2023-04-16T02:18:41;6.07;;;2.00;;
71941;SDS011;59997;53.300;-6.260;2023-04-16T02:21:06;6.60;;;2.10;;
71941;SDS011;59997;53.300;-6.260;2023-04-16T02:23:32;6.67;;;1.80;;
71941;SDS011;59997;53.300;-6.260;2023-04-16T02:25:58;10.30;;;2.10;;
71941;SDS011;59997;53.300;-6.260;2023-04-16T02:28:23;7.10;;;2.30;;
71941;SDS011;59997;53.300;-6.260;2023-04-16T02:30:49;8.40;;;2.00;;
71941;SDS011;59997;53.300;-6.260;2023-04-16T02:33:14;7.33;;;2.20;;
71941;SDS011;59997;53.300;-6.260;2023-04-16T02:35:40;9.43;;;2.30;;
71941;SDS011;59997;53.300;-6.260;2023-04-16T02:38:05;9.33;;;2.13;;
71941;SDS011;59997;53.300;-6.260;2023-04-16T02:40:31;6.97;;;1.98;;
71941;SDS011;59997;53.300;-6.260;2023-04-16T02:42:57;10.15;;;1.95;;
71941;SDS011;59997;53.300;-6.260;2023-04-16T02:45:23;8.83;;;2.17;;
71941;SDS011;59997;53.300;-6.260;2023-04-16T02:47:49;7.63;;;1.67;;
71941;SDS011;59997;53.300;-6.260;2023-04-16T02:50:15;6.85;;;2.00;;
71941;SDS011;59997;53.300;-6.260;2023-04-16T02:52:41;10.10;;;1.90;;
71941;SDS011;59997;53.300;-6.260;2023-04-16T02:55:07;8.90;;;1.90;;
71941;SDS011;59997;53.300;-6.260;2023-04-16T02:57:33;9.50;;;2.10;;
71941;SDS011;59997;53.300;-6.260;2023-04-16T02:59:59;6.75;;;2.00;;
71941;SDS011;59997;53.300;-6.260;2023-04-16T03:02:25;8.97;;;2.73;;
71941;SDS011;59997;53.300;-6.260;2023-04-16T03:04:51;7.97;;;2.47;;
71941;SDS011;59997;53.300;-6.260;2023-04-16T03:07:17;9.05;;;3.05;;
71941;SDS011;59997;53.300;-6.260;2023-04-16T03:09:42;9.23;;;2.73;;
71941;SDS011;59997;53.300;-6.260;2023-04-16T03:12:08;10.60;;;2.97;;
71941;SDS011;59997;53.300;-6.260;2023-04-16T03:14:34;11.73;;;2.50;;
71941;SDS011;59997;53.300;-6.260;2023-04-16T03:16:59;10.17;;;3.10;;
71941;SDS011;59997;53.300;-6.260;2023-04-16T03:19:25;10.98;;;3.40;;
71941;SDS011;59997;53.300;-6.260;2023-04-16T03:21:50;9.13;;;3.60;;
71941;SDS011;59997;53.300;-6.260;2023-04-16T03:24:16;10.37;;;3.80;;
71941;SDS011;59997;53.300;-6.260;2023-04-16T03:26:42;9.90;;;3.72;;
71941;SDS011;59997;53.300;-6.260;2023-04-16T03:29:07;13.37;;;3.10;;
71941;SDS011;59997;53.300;-6.260;2023-04-16T03:31:33;12.13;;;3.58;;
71941;SDS011;59997;53.300;-6.260;2023-04-16T03:33:58;11.57;;;3.50;;
71941;SDS011;59997;53.300;-6.260;2023-04-16T03:36:24;10.80;;;3.00;;
71941;SDS011;59997;53.300;-6.260;2023-04-16T03:38:51;11.70;;;3.28;;
71941;SDS011;59997;53.300;-6.260;2023-04-16T03:41:17;10.80;;;2.90;;
71941;SDS011;59997;53.300;-6.260;2023-04-16T03:43:42;8.38;;;3.20;;
71941;SDS011;59997;53.300;-6.260;2023-04-16T03:46:08;7.40;;;2.43;;
71941;SDS011;59997;53.300;-6.260;2023-04-16T03:48:33;8.63;;;2.33;;
71941;SDS011;59997;53.300;-6.260;2023-04-16T03:50:59;10.50;;;2.50;;
71941;SDS011;59997;53.300;-6.260;2023-04-16T03:53:24;8.05;;;2.70;;
71941;SDS011;59997;53.300;-6.260;2023-04-16T03:55:50;8.33;;;2.97;;
71941;SDS011;59997;53.300;-6.260;2023-04-16T03:58:16;6.97;;;2.38;;
71941;SDS011;59997;53.300;-6.260;2023-04-16T04:00:42;8.70;;;2.13;;
71941;SDS011;59997;53.300;-6.260;2023-04-16T04:03:08;9.90;;;2.70;;
71941;SDS011;59997;53.300;-6.260;2023-04-16T04:05:40;9.57;;;2.20;;
71941;SDS011;59997;53.300;-6.260;2023-04-16T04:08:07;7.50;;;2.50;;
71941;SDS011;59997;53.300;-6.260;2023-04-16T04:10:34;8.87;;;2.70;;
71941;SDS011;59997;53.300;-6.260;2023-04-16T04:13:03;9.07;;;2.17;;
71941;SDS011;59997;53.300;-6.260;2023-04-16T04:15:30;6.80;;;2.47;;
71941;SDS011;59997;53.300;-6.260;2023-04-16T04:17:56;8.68;;;2.58;;
71941;SDS011;59997;53.300;-6.260;2023-04-16T04:20:22;7.73;;;2.67;;
71941;SDS011;59997;53.300;-6.260;2023-04-16T04:22:48;10.32;;;2.55;;
71941;SDS011;59997;53.300;-6.260;2023-04-16T04:25:15;8.57;;;2.60;;
71941;SDS011;59997;53.300;-6.260;2023-04-16T04:27:41;7.03;;;2.67;;
71941;SDS011;59997;53.300;-6.260;2023-04-16T04:30:07;9.37;;;2.73;;
71941;SDS011;59997;53.300;-6.260;2023-04-16T04:32:34;9.38;;;2.35;;
71941;SDS011;59997;53.300;-6.260;2023-04-16T04:35:00;6.35;;;2.40;;
71941;SDS011;59997;53.300;-6.260;2023-04-16T04:37:26;10.23;;;2.07;;
71941;SDS011;59997;53.300;-6.260;2023-04-16T04:39:52;8.73;;;2.45;;
71941;SDS011;59997;53.300;-6.260;2023-04-16T04:42:17;9.00;;;2.83;;
71941;SDS011;59997;53.300;-6.260;2023-04-16T04:44:43;6.63;;;2.35;;
71941;SDS011;59997;53.300;-6.260;2023-04-16T04:47:09;11.23;;;2.70;;
71941;SDS011;59997;53.300;-6.260;2023-04-16T04:49:35;11.95;;;3.15;;
71941;SDS011;59997;53.300;-6.260;2023-04-16T04:52:00;6.67;;;2.37;;
71941;SDS011;59997;53.300;-6.260;2023-04-16T04:54:27;7.50;;;2.50;;
71941;SDS011;59997;53.300;-6.260;2023-04-16T04:56:53;9.23;;;2.43;;
71941;SDS011;59997;53.300;-6.260;2023-04-16T04:59:21;7.50;;;2.33;;
71941;SDS011;59997;53.300;-6.260;2023-04-16T05:01:47;6.67;;;2.40;;
71941;SDS011;59997;53.300;-6.260;2023-04-16T05:04:13;8.00;;;2.50;;
71941;SDS011;59997;53.300;-6.260;2023-04-16T05:06:38;10.93;;;3.00;;
71941;SDS011;59997;53.300;-6.260;2023-04-16T05:09:04;8.87;;;2.70;;
71941;SDS011;59997;53.300;-6.260;2023-04-16T05:11:29;9.85;;;3.10;;
71941;SDS011;59997;53.300;-6.260;2023-04-16T05:13:55;13.40;;;3.10;;
71941;SDS011;59997;53.300;-6.260;2023-04-16T05:16:20;11.50;;;3.10;;
71941;SDS011;59997;53.300;-6.260;2023-04-16T05:18:46;10.97;;;3.10;;
71941;SDS011;59997;53.300;-6.260;2023-04-16T05:21:11;10.77;;;3.10;;
71941;SDS011;59997;53.300;-6.260;2023-04-16T05:23:37;8.53;;;2.70;;
71941;SDS011;59997;53.300;-6.260;2023-04-16T05:26:02;12.55;;;3.22;;
71941;SDS011;59997;53.300;-6.260;2023-04-16T05:28:28;9.80;;;3.30;;
71941;SDS011;59997;53.300;-6.260;2023-04-16T05:30:54;10.77;;;3.15;;
71941;SDS011;59997;53.300;-6.260;2023-04-16T05:33:19;11.90;;;3.57;;
71941;SDS011;59997;53.300;-6.260;2023-04-16T05:35:45;9.33;;;3.50;;
71941;SDS011;59997;53.300;-6.260;2023-04-16T05:38:10;9.17;;;3.07;;
71941;SDS011;59997;53.300;-6.260;2023-04-16T05:40:36;11.65;;;3.30;;
71941;SDS011;59997;53.300;-6.260;2023-04-16T05:43:01;11.23;;;2.90;;
71941;SDS011;59997;53.300;-6.260;2023-04-16T05:45:27;9.93;;;3.20;;
71941;SDS011;59997;53.300;-6.260;2023-04-16T05:47:52;10.70;;;3.63;;
71941;SDS011;59997;53.300;-6.260;2023-04-16T05:50:17;9.90;;;3.27;;
71941;SDS011;59997;53.300;-6.260;2023-04-16T05:52:43;13.50;;;3.22;;
71941;SDS011;59997;53.300;-6.260;2023-04-16T05:55:08;8.93;;;3.40;;
71941;SDS011;59997;53.300;-6.260;2023-04-16T05:57:34;12.87;;;3.43;;
71941;SDS011;59997;53.300;-6.260;2023-04-16T06:00:00;8.45;;;3.40;;
71941;SDS011;59997;53.300;-6.260;2023-04-16T06:02:25;11.63;;;3.73;;
71941;SDS011;59997;53.300;-6.260;2023-04-16T06:04:50;10.23;;;3.47;;
71941;SDS011;59997;53.300;-6.260;2023-04-16T06:07:16;9.80;;;3.13;;
71941;SDS011;59997;53.300;-6.260;2023-04-16T06:09:42;9.23;;;3.08;;
71941;SDS011;59997;53.300;-6.260;2023-04-16T06:12:09;12.67;;;3.20;;
71941;SDS011;59997;53.300;-6.260;2023-04-16T06:14:34;11.20;;;2.47;;
71941;SDS011;59997;53.300;-6.260;2023-04-16T06:17:00;8.83;;;2.60;;
71941;SDS011;59997;53.300;-6.260;2023-04-16T06:19:25;9.33;;;2.40;;
71941;SDS011;59997;53.300;-6.260;2023-04-16T06:21:51;8.45;;;2.58;;
71941;SDS011;59997;53.300;-6.260;2023-04-16T06:24:17;8.20;;;2.40;;
71941;SDS011;59997;53.300;-6.260;2023-04-16T06:26:43;7.20;;;2.30;;
71941;SDS011;59997;53.300;-6.260;2023-04-16T06:29:08;9.03;;;2.10;;
71941;SDS011;59997;53.300;-6.260;2023-04-16T06:31:34;7.20;;;2.08;;
71941;SDS011;59997;53.300;-6.260;2023-04-16T06:33:59;8.10;;;2.90;;
71941;SDS011;59997;53.300;-6.260;2023-04-16T06:36:25;10.52;;;4.10;;
71941;SDS011;59997;53.300;-6.260;2023-04-16T06:38:51;7.37;;;3.10;;
71941;SDS011;59997;53.300;-6.260;2023-04-16T06:41:17;11.02;;;2.03;;
71941;SDS011;59997;53.300;-6.260;2023-04-16T06:43:42;7.03;;;1.33;;
71941;SDS011;59997;53.300;-6.260;2023-04-16T06:46:08;9.37;;;2.60;;
71941;SDS011;59997;53.300;-6.260;2023-04-16T06:48:33;11.25;;;3.38;;
71941;SDS011;59997;53.300;-6.260;2023-04-16T06:50:59;14.13;;;6.97;;
71941;SDS011;59997;53.300;-6.260;2023-04-16T06:53:24;27.50;;;10.73;;
71941;SDS011;59997;53.300;-6.260;2023-04-16T06:55:50;14.98;;;7.95;;
71941;SDS011;59997;53.300;-6.260;2023-04-16T06:58:15;24.47;;;11.47;;
71941;SDS011;59997;53.300;-6.260;2023-04-16T07:00:41;36.37;;;15.87;;
71941;SDS011;59997;53.300;-6.260;2023-04-16T07:03:07;48.55;;;22.38;;
71941;SDS011;59997;53.300;-6.260;2023-04-16T07:05:32;35.93;;;13.00;;
71941;SDS011;59997;53.300;-6.260;2023-04-16T07:07:58;41.03;;;17.48;;
71941;SDS011;59997;53.300;-6.260;2023-04-16T07:10:23;32.30;;;14.27;;
71941;SDS011;59997;53.300;-6.260;2023-04-16T07:12:49;32.43;;;13.37;;
71941;SDS011;59997;53.300;-6.260;2023-04-16T07:15:14;28.63;;;10.38;;
71941;SDS011;59997;53.300;-6.260;2023-04-16T07:17:40;19.17;;;6.40;;
71941;SDS011;59997;53.300;-6.260;2023-04-16T07:20:06;20.03;;;6.47;;
71941;SDS011;59997;53.300;-6.260;2023-04-16T07:22:32;19.40;;;6.78;;
71941;SDS011;59997;53.300;-6.260;2023-04-16T07:24:57;31.10;;;12.63;;
71941;SDS011;59997;53.300;-6.260;2023-04-16T07:27:23;21.08;;;8.90;;
71941;SDS011;59997;53.300;-6.260;2023-04-16T07:29:48;19.73;;;9.90;;
71941;SDS011;59997;53.300;-6.260;2023-04-16T07:32:14;28.95;;;11.90;;
71941;SDS011;59997;53.300;-6.260;2023-04-16T07:34:40;17.23;;;6.17;;
71941;SDS011;59997;53.300;-6.260;2023-04-16T07:37:06;14.03;;;3.70;;
71941;SDS011;59997;53.300;-6.260;2023-04-16T07:39:31;22.08;;;7.72;;
71941;SDS011;59997;53.300;-6.260;2023-04-16T07:41:56;24.07;;;8.60;;
71941;SDS011;59997;53.300;-6.260;2023-04-16T07:44:22;54.73;;;20.73;;
71941;SDS011;59997;53.300;-6.260;2023-04-16T07:46:47;19.90;;;7.03;;
71941;SDS011;59997;53.300;-6.260;2023-04-16T07:49:13;26.75;;;10.30;;
71941;SDS011;59997;53.300;-6.260;2023-04-16T07:51:39;21.40;;;8.35;;
71941;SDS011;59997;53.300;-6.260;2023-04-16T07:54:05;35.63;;;13.90;;
71941;SDS011;59997;53.300;-6.260;2023-04-16T07:56:30;39.47;;;17.40;;
71941;SDS011;59997;53.300;-6.260;2023-04-16T07:58:56;23.85;;;9.75;;
71941;SDS011;59997;53.300;-6.260;2023-04-16T08:01:21;49.60;;;19.50;;
71941;SDS011;59997;53.300;-6.260;2023-04-16T08:03:47;18.17;;;8.07;;
71941;SDS011;59997;53.300;-6.260;2023-04-16T08:06:12;26.40;;;11.07;;
71941;SDS011;59997;53.300;-6.260;2023-04-16T08:08:37;16.37;;;6.43;;
71941;SDS011;59997;53.300;-6.260;2023-04-16T08:11:03;13.27;;;6.07;;
71941;SDS011;59997;53.300;-6.260;2023-04-16T08:13:28;15.43;;;4.50;;
71941;SDS011;59997;53.300;-6.260;2023-04-16T08:15:54;8.95;;;2.40;;
71941;SDS011;59997;53.300;-6.260;2023-04-16T08:18:20;9.07;;;2.33;;
71941;SDS011;59997;53.300;-6.260;2023-04-16T08:20:45;8.70;;;2.27;;
71941;SDS011;59997;53.300;-6.260;2023-04-16T08:23:10;6.10;;;1.47;;
71941;SDS011;59997;53.300;-6.260;2023-04-16T08:25:36;7.15;;;1.42;;
71941;SDS011;59997;53.300;-6.260;2023-04-16T08:28:01;9.70;;;2.60;;
71941;SDS011;59997;53.300;-6.260;2023-04-16T08:30:27;10.93;;;4.67;;
71941;SDS011;59997;53.300;-6.260;2023-04-16T08:32:52;12.35;;;3.90;;
71941;SDS011;59997;53.300;-6.260;2023-04-16T08:35:18;23.23;;;10.03;;
71941;SDS011;59997;53.300;-6.260;2023-04-16T08:37:44;14.50;;;3.80;;
71941;SDS011;59997;53.300;-6.260;2023-04-16T08:40:09;13.00;;;4.28;;
71941;SDS011;59997;53.300;-6.260;2023-04-16T08:42:39;20.03;;;6.30;;
71941;SDS011;59997;53.300;-6.260;2023-04-16T08:45:12;34.47;;;15.00;;
71941;SDS011;59997;53.300;-6.260;2023-04-16T08:47:44;33.15;;;14.52;;
71941;SDS011;59997;53.300;-6.260;2023-04-16T08:50:10;22.85;;;9.13;;
71941;SDS011;59997;53.300;-6.260;2023-04-16T08:52:42;19.57;;;7.23;;
71941;SDS011;59997;53.300;-6.260;2023-04-16T08:55:12;37.03;;;17.20;;
71941;SDS011;59997;53.300;-6.260;2023-04-16T08:57:41;21.58;;;9.25;;
71941;SDS011;59997;53.300;-6.260;2023-04-16T09:00:11;12.07;;;3.90;;
71941;SDS011;59997;53.300;-6.260;2023-04-16T09:02:38;15.57;;;5.37;;
71941;SDS011;59997;53.300;-6.260;2023-04-16T09:05:04;23.55;;;10.18;;
71941;SDS011;59997;53.300;-6.260;2023-04-16T09:07:31;13.45;;;5.07;;
71941;SDS011;59997;53.300;-6.260;2023-04-16T09:09:58;22.77;;;9.27;;
71941;SDS011;59997;53.300;-6.260;2023-04-16T09:12:24;36.37;;;15.20;;
71941;SDS011;59997;53.300;-6.260;2023-04-16T09:14:50;20.52;;;8.45;;
71941;SDS011;59997;53.300;-6.260;2023-04-16T09:17:17;25.92;;;11.43;;
71941;SDS011;59997;53.300;-6.260;2023-04-16T09:19:43;44.43;;;18.43;;
71941;SDS011;59997;53.300;-6.260;2023-04-16T09:22:11;23.52;;;9.70;;
71941;SDS011;59997;53.300;-6.260;2023-04-16T09:24:37;14.85;;;6.15;;
71941;SDS011;59997;53.300;-6.260;2023-04-16T09:27:03;10.87;;;3.93;;
71941;SDS011;59997;53.300;-6.260;2023-04-16T09:29:32;10.68;;;2.55;;
71941;SDS011;59997;53.300;-6.260;2023-04-16T09:32:09;9.82;;;3.03;;
71941;SDS011;59997;53.300;-6.260;2023-04-16T09:34:55;13.35;;;5.22;;
71941;SDS011;59997;53.300;-6.260;2023-04-16T09:37:26;24.70;;;7.63;;
71941;SDS011;59997;53.300;-6.260;2023-04-16T09:42:23;15.90;;;6.15;;
71941;SDS011;59997;53.300;-6.260;2023-04-16T09:44:51;33.95;;;17.80;;
71941;SDS011;59997;53.300;-6.260;2023-04-16T09:47:17;24.70;;;13.13;;
71941;SDS011;59997;53.300;-6.260;2023-04-16T09:49:43;9.37;;;2.77;;
71941;SDS011;59997;53.300;-6.260;2023-04-16T09:52:16;10.80;;;4.00;;
71941;SDS011;59997;53.300;-6.260;2023-04-16T09:54:47;7.50;;;1.20;;
71941;SDS011;59997;53.300;-6.260;2023-04-16T09:59:46;10.55;;;2.75;;
71941;SDS011;59997;53.300;-6.260;2023-04-16T10:02:12;15.10;;;5.45;;
71941;SDS011;59997;53.300;-6.260;2023-04-16T10:05:12;9.83;;;3.93;;
71941;SDS011;59997;53.300;-6.260;2023-04-16T10:07:32;11.45;;;2.78;;
71941;SDS011;59997;53.300;-6.260;2023-04-16T10:09:59;14.00;;;1.95;;
71941;SDS011;59997;53.300;-6.260;2023-04-16T10:12:25;10.57;;;1.70;;
71941;SDS011;59997;53.300;-6.260;2023-04-16T10:14:53;9.63;;;1.83;;
71941;SDS011;59997;53.300;-6.260;2023-04-16T10:17:19;9.17;;;2.37;;
71941;SDS011;59997;53.300;-6.260;2023-04-16T10:19:45;9.13;;;1.60;;
71941;SDS011;59997;53.300;-6.260;2023-04-16T10:22:11;8.23;;;1.85;;
71941;SDS011;59997;53.300;-6.260;2023-04-16T10:24:36;9.87;;;1.70;;
71941;SDS011;59997;53.300;-6.260;2023-04-16T10:27:02;8.48;;;1.83;;
71941;SDS011;59997;53.300;-6.260;2023-04-16T10:29:28;8.60;;;1.67;;
71941;SDS011;59997;53.300;-6.260;2023-04-16T10:31:55;8.68;;;1.83;;
71941;SDS011;59997;53.300;-6.260;2023-04-16T10:34:22;8.85;;;1.55;;
71941;SDS011;59997;53.300;-6.260;2023-04-16T10:36:49;10.70;;;1.55;;
71941;SDS011;59997;53.300;-6.260;2023-04-16T10:39:19;8.40;;;1.25;;
71941;SDS011;59997;53.300;-6.260;2023-04-16T10:41:49;7.00;;;1.40;;
71941;SDS011;59997;53.300;-6.260;2023-04-16T10:44:16;5.97;;;1.33;;
71941;SDS011;59997;53.300;-6.260;2023-04-16T10:46:43;9.95;;;2.15;;
71941;SDS011;59997;53.300;-6.260;2023-04-16T10:52:00;8.43;;;1.50;;
71941;SDS011;59997;53.300;-6.260;2023-04-16T10:54:34;10.43;;;1.47;;
71941;SDS011;59997;53.300;-6.260;2023-04-16T10:57:03;7.40;;;1.70;;
71941;SDS011;59997;53.300;-6.260;2023-04-16T10:59:31;11.82;;;2.05;;
71941;SDS011;59997;53.300;-6.260;2023-04-16T11:01:59;14.18;;;6.30;;
71941;SDS011;59997;53.300;-6.260;2023-04-16T11:04:32;16.15;;;6.65;;
71941;SDS011;59997;53.300;-6.260;2023-04-16T11:07:03;11.67;;;4.73;;
71941;SDS011;59997;53.300;-6.260;2023-04-16T11:15:19;13.80;;;5.93;;
71941;SDS011;59997;53.300;-6.260;2023-04-16T11:17:42;11.63;;;2.45;;
71941;SDS011;59997;53.300;-6.260;2023-04-16T11:20:09;10.13;;;2.77;;
71941;SDS011;59997;53.300;-6.260;2023-04-16T11:22:40;12.05;;;4.03;;
71941;SDS011;59997;53.300;-6.260;2023-04-16T11:25:07;9.50;;;2.13;;
71941;SDS011;59997;53.300;-6.260;2023-04-16T11:27:32;10.87;;;3.70;;
71941;SDS011;59997;53.300;-6.260;2023-04-16T11:29:59;10.10;;;2.33;;
71941;SDS011;59997;53.300;-6.260;2023-04-16T11:32:26;11.18;;;3.33;;
71941;SDS011;59997;53.300;-6.260;2023-04-16T11:34:55;10.65;;;2.92;;
71941;SDS011;59997;53.300;-6.260;2023-04-16T11:37:21;9.53;;;2.20;;
71941;SDS011;59997;53.300;-6.260;2023-04-16T11:39:57;8.48;;;2.10;;
71941;SDS011;59997;53.300;-6.260;2023-04-16T11:42:22;9.83;;;2.00;;
71941;SDS011;59997;53.300;-6.260;2023-04-16T11:44:51;7.60;;;1.80;;
71941;SDS011;59997;53.300;-6.260;2023-04-16T11:47:18;10.93;;;2.50;;
71941;SDS011;59997;53.300;-6.260;2023-04-16T11:49:44;9.00;;;2.17;;
71941;SDS011;59997;53.300;-6.260;2023-04-16T11:52:09;6.10;;;2.13;;
71941;SDS011;59997;53.300;-6.260;2023-04-16T11:54:35;8.93;;;1.92;;
71941;SDS011;59997;53.300;-6.260;2023-04-16T11:57:01;6.07;;;1.70;;
71941;SDS011;59997;53.300;-6.260;2023-04-16T11:59:30;8.20;;;2.30;;
71941;SDS011;59997;53.300;-6.260;2023-04-16T12:01:56;6.23;;;1.90;;
71941;SDS011;59997;53.300;-6.260;2023-04-16T12:04:25;7.60;;;2.13;;
71941;SDS011;59997;53.300;-6.260;2023-04-16T12:07:04;8.93;;;2.00;;
71941;SDS011;59997;53.300;-6.260;2023-04-16T12:09:31;6.88;;;1.85;;
71941;SDS011;59997;53.300;-6.260;2023-04-16T12:11:56;7.30;;;2.10;;
71941;SDS011;59997;53.300;-6.260;2023-04-16T12:14:22;7.60;;;1.70;;
71941;SDS011;59997;53.300;-6.260;2023-04-16T12:16:48;8.32;;;2.00;;
71941;SDS011;59997;53.300;-6.260;2023-04-16T12:19:13;8.47;;;1.70;;
71941;SDS011;59997;53.300;-6.260;2023-04-16T12:21:40;10.10;;;1.90;;
71941;SDS011;59997;53.300;-6.260;2023-04-16T12:24:06;9.50;;;2.08;;
71941;SDS011;59997;53.300;-6.260;2023-04-16T12:29:27;6.13;;;1.60;;
71941;SDS011;59997;53.300;-6.260;2023-04-16T12:31:52;8.13;;;2.05;;
71941;SDS011;59997;53.300;-6.260;2023-04-16T12:34:19;11.30;;;1.77;;
71941;SDS011;59997;53.300;-6.260;2023-04-16T12:36:46;6.80;;;1.87;;
71941;SDS011;59997;53.300;-6.260;2023-04-16T12:39:13;7.60;;;1.67;;
71941;SDS011;59997;53.300;-6.260;2023-04-16T12:41:40;6.68;;;1.80;;
71941;SDS011;59997;53.300;-6.260;2023-04-16T12:44:10;10.57;;;2.00;;
71941;SDS011;59997;53.300;-6.260;2023-04-16T12:46:40;8.23;;;1.80;;
71941;SDS011;59997;53.300;-6.260;2023-04-16T12:49:07;6.03;;;1.73;;
71941;SDS011;59997;53.300;-6.260;2023-04-16T12:51:34;8.32;;;1.60;;
71941;SDS011;59997;53.300;-6.260;2023-04-16T12:54:01;6.88;;;1.70;;
71941;SDS011;59997;53.300;-6.260;2023-04-16T12:56:28;8.52;;;2.00;;
71941;SDS011;59997;53.300;-6.260;2023-04-16T12:58:54;6.50;;;1.60;;
71941;SDS011;59997;53.300;-6.260;2023-04-16T13:01:20;7.23;;;1.70;;
71941;SDS011;59997;53.300;-6.260;2023-04-16T13:03:46;6.78;;;1.50;;
71941;SDS011;59997;53.300;-6.260;2023-04-16T13:06:12;5.60;;;1.80;;
71941;SDS011;59997;53.300;-6.260;2023-04-16T13:08:39;6.77;;;1.60;;
71941;SDS011;59997;53.300;-6.260;2023-04-16T13:11:05;8.30;;;1.60;;
71941;SDS011;59997;53.300;-6.260;2023-04-16T13:13:31;5.80;;;1.83;;
71941;SDS011;59997;53.300;-6.260;2023-04-16T13:15:57;8.47;;;1.73;;
71941;SDS011;59997;53.300;-6.260;2023-04-16T13:18:24;7.68;;;2.97;;
71941;SDS011;59997;53.300;-6.260;2023-04-16T13:20:50;7.00;;;1.52;;
71941;SDS011;59997;53.300;-6.260;2023-04-16T13:23:16;6.60;;;1.77;;
71941;SDS011;59997;53.300;-6.260;2023-04-16T13:25:42;7.17;;;1.40;;
71941;SDS011;59997;53.300;-6.260;2023-04-16T13:28:07;5.73;;;1.50;;
71941;SDS011;59997;53.300;-6.260;2023-04-16T13:30:33;7.30;;;1.50;;
71941;SDS011;59997;53.300;-6.260;2023-04-16T13:32:59;7.00;;;1.20;;
71941;SDS011;59997;53.300;-6.260;2023-04-16T13:35:24;8.25;;;2.05;;
71941;SDS011;59997;53.300;-6.260;2023-04-16T13:37:51;6.67;;;1.80;;
71941;SDS011;59997;53.300;-6.260;2023-04-16T13:40:17;8.35;;;1.60;;
71941;SDS011;59997;53.300;-6.260;2023-04-16T13:42:42;10.37;;;2.00;;
71941;SDS011;59997;53.300;-6.260;2023-04-16T13:45:08;7.45;;;1.80;;
71941;SDS011;59997;53.300;-6.260;2023-04-16T13:47:34;6.77;;;1.60;;
71941;SDS011;59997;53.300;-6.260;2023-04-16T13:50:00;6.55;;;2.08;;
71941;SDS011;59997;53.300;-6.260;2023-04-16T13:52:26;5.77;;;1.77;;
71941;SDS011;59997;53.300;-6.260;2023-04-16T13:54:51;7.05;;;2.00;;
71941;SDS011;59997;53.300;-6.260;2023-04-16T13:57:17;6.90;;;1.43;;
71941;SDS011;59997;53.300;-6.260;2023-04-16T13:59:43;6.78;;;1.50;;
71941;SDS011;59997;53.300;-6.260;2023-04-16T14:02:09;5.65;;;1.63;;
71941;SDS011;59997;53.300;-6.260;2023-04-16T14:04:35;7.47;;;1.43;;
71941;SDS011;59997;53.300;-6.260;2023-04-16T14:07:01;7.33;;;1.70;;
71941;SDS011;59997;53.300;-6.260;2023-04-16T14:09:26;8.45;;;1.52;;
71941;SDS011;59997;53.300;-6.260;2023-04-16T14:11:52;7.77;;;1.70;;
71941;SDS011;59997;53.300;-6.260;2023-04-16T14:14:17;7.90;;;1.80;;
71941;SDS011;59997;53.300;-6.260;2023-04-16T14:16:43;6.23;;;1.93;;
71941;SDS011;59997;53.300;-6.260;2023-04-16T14:19:08;6.53;;;1.50;;
71941;SDS011;59997;53.300;-6.260;2023-04-16T14:21:34;5.43;;;1.35;;
71941;SDS011;59997;53.300;-6.260;2023-04-16T14:23:59;7.97;;;1.93;;
71941;SDS011;59997;53.300;-6.260;2023-04-16T14:26:25;6.20;;;1.70;;
71941;SDS011;59997;53.300;-6.260;2023-04-16T14:28:50;5.68;;;1.50;;
71941;SDS011;59997;53.300;-6.260;2023-04-16T14:31:16;6.13;;;1.83;;
71941;SDS011;59997;53.300;-6.260;2023-04-16T14:33:42;5.10;;;1.55;;
71941;SDS011;59997;53.300;-6.260;2023-04-16T14:36:08;6.80;;;2.27;;
71941;SDS011;59997;53.300;-6.260;2023-04-16T14:38:34;6.47;;;2.25;;